sensor_id;sensor_type;location;lat;lon;timestamp;temperature;humidity
58513;DHT22;44302;47.914;10.642;2023-03-04T06:53:19;-2.50;99.90
58513;DHT22;44302;47.914;10.642;2023-03-04T07:40:19;-1.20;99.90
58513;DHT22;44302;47.914;10.642;2023-03-04T07:44:35;-1.10;99.90
58513;DHT22;44302;47.914;10.642;2023-03-04T07:48:35;-0.90;99.90
58513;DHT22;44302;47.914;10.642;2023-03-04T07:52:44;-0.70;99.90
58513;DHT22;44302;47.914;10.642;2023-03-04T07:55:12;-0.60;99.90
58513;DHT22;44302;47.914;10.642;2023-03-04T07:57:42;-0.60;99.90
58513;DHT22;44302;47.914;10.642;2023-03-04T08:00:09;-0.50;99.90
58513;DHT22;44302;47.914;10.642;2023-03-04T08:02:35;-0.50;99.90
58513;DHT22;44302;47.914;10.642;2023-03-04T08:05:00;-0.40;99.90
58513;DHT22;44302;47.914;10.642;2023-03-04T08:07:26;-0.40;99.90
58513;DHT22;44302;47.914;10.642;2023-03-04T08:09:52;-0.30;99.90
58513;DHT22;44302;47.914;10.642;2023-03-04T08:12:18;-0.30;99.90
58513;DHT22;44302;47.914;10.642;2023-03-04T08:14:43;-0.10;99.90
58513;DHT22;44302;47.914;10.642;2023-03-04T08:17:09;-0.10;99.90
58513;DHT22;44302;47.914;10.642;2023-03-04T08:19:35;0.10;99.90
58513;DHT22;44302;47.914;10.642;2023-03-04T08:22:02;0.20;99.90
58513;DHT22;44302;47.914;10.642;2023-03-04T08:24:27;0.10;99.90
58513;DHT22;44302;47.914;10.642;2023-03-04T08:26:53;0.20;99.90
58513;DHT22;44302;47.914;10.642;2023-03-04T08:29:21;0.30;99.90
58513;DHT22;44302;47.914;10.642;2023-03-04T08:31:48;0.40;99.90
58513;DHT22;44302;47.914;10.642;2023-03-04T08:34:14;0.50;99.90
58513;DHT22;44302;47.914;10.642;2023-03-04T08:36:41;0.50;99.90
58513;DHT22;44302;47.914;10.642;2023-03-04T08:39:11;0.60;99.90
58513;DHT22;44302;47.914;10.642;2023-03-04T08:41:38;0.70;99.90
58513;DHT22;44302;47.914;10.642;2023-03-04T08:44:04;0.70;99.90
58513;DHT22;44302;47.914;10.642;2023-03-04T08:46:30;0.70;99.90
58513;DHT22;44302;47.914;10.642;2023-03-04T08:48:56;0.70;99.90
58513;DHT22;44302;47.914;10.642;2023-03-04T08:51:22;0.80;99.90
58513;DHT22;44302;47.914;10.642;2023-03-04T08:53:47;0.90;99.90
58513;DHT22;44302;47.914;10.642;2023-03-04T08:56:14;1.10;99.90
58513;DHT22;44302;47.914;10.642;2023-03-04T08:58:40;1.20;99.90
58513;DHT22;44302;47.914;10.642;2023-03-04T09:01:10;1.30;99.90
58513;DHT22;44302;47.914;10.642;2023-03-04T09:03:37;1.30;99.90
58513;DHT22;44302;47.914;10.642;2023-03-04T09:06:03;1.30;99.90
58513;DHT22;44302;47.914;10.642;2023-03-04T09:08:29;1.30;99.90
58513;DHT22;44302;47.914;10.642;2023-03-04T09:10:55;1.20;99.90
58513;DHT22;44302;47.914;10.642;2023-03-04T09:13:24;1.30;99.90
58513;DHT22;44302;47.914;10.642;2023-03-04T09:15:51;1.40;99.90
58513;DHT22;44302;47.914;10.642;2023-03-04T09:18:18;1.50;99.90
58513;DHT22;44302;47.914;10.642;2023-03-04T09:20:44;1.60;99.90
58513;DHT22;44302;47.914;10.642;2023-03-04T09:23:10;1.60;99.90
58513;DHT22;44302;47.914;10.642;2023-03-04T09:25:37;1.70;99.90
58513;DHT22;44302;47.914;10.642;2023-03-04T09:28:04;2.00;99.90
58513;DHT22;44302;47.914;10.642;2023-03-04T09:30:30;2.30;99.90
58513;DHT22;44302;47.914;10.642;2023-03-04T09:32:56;2.50;99.90
58513;DHT22;44302;47.914;10.642;2023-03-04T09:35:22;2.60;99.90
58513;DHT22;44302;47.914;10.642;2023-03-04T09:37:48;2.70;99.90
58513;DHT22;44302;47.914;10.642;2023-03-04T09:40:29;2.80;99.90
58513;DHT22;44302;47.914;10.642;2023-03-04T09:43:01;2.80;99.90
58513;DHT22;44302;47.914;10.642;2023-03-04T09:45:54;2.80;99.90
58513;DHT22;44302;47.914;10.642;2023-03-04T09:48:22;2.90;99.90
58513;DHT22;44302;47.914;10.642;2023-03-04T09:56:21;3.30;99.90
58513;DHT22;44302;47.914;10.642;2023-03-04T10:01:55;3.70;99.90
58513;DHT22;44302;47.914;10.642;2023-03-04T10:04:35;3.90;99.90
58513;DHT22;44302;47.914;10.642;2023-03-04T10:07:14;4.20;99.90
58513;DHT22;44302;47.914;10.642;2023-03-04T10:09:54;4.80;99.90
58513;DHT22;44302;47.914;10.642;2023-03-04T10:12:23;5.30;99.90
58513;DHT22;44302;47.914;10.642;2023-03-04T10:15:47;5.30;99.90
58513;DHT22;44302;47.914;10.642;2023-03-04T10:17:51;5.20;99.90
58513;DHT22;44302;47.914;10.642;2023-03-04T10:20:24;4.90;99.90
58513;DHT22;44302;47.914;10.642;2023-03-04T10:22:55;4.70;99.90
58513;DHT22;44302;47.914;10.642;2023-03-04T10:25:28;4.60;99.90
58513;DHT22;44302;47.914;10.642;2023-03-04T10:33:17;4.70;99.90
58513;DHT22;44302;47.914;10.642;2023-03-04T10:36:12;4.80;99.90
58513;DHT22;44302;47.914;10.642;2023-03-04T10:38:38;5.00;99.90
58513;DHT22;44302;47.914;10.642;2023-03-04T10:41:20;5.10;99.90
58513;DHT22;44302;47.914;10.642;2023-03-04T10:44:01;4.90;99.90
58513;DHT22;44302;47.914;10.642;2023-03-04T10:46:28;4.80;99.90
58513;DHT22;44302;47.914;10.642;2023-03-04T10:48:54;4.80;99.90
58513;DHT22;44302;47.914;10.642;2023-03-04T10:51:23;4.70;99.90
58513;DHT22;44302;47.914;10.642;2023-03-04T10:53:57;4.70;99.90
58513;DHT22;44302;47.914;10.642;2023-03-04T10:56:41;4.80;99.90
58513;DHT22;44302;47.914;10.642;2023-03-04T11:01:59;4.90;99.90
58513;DHT22;44302;47.914;10.642;2023-03-04T11:04:31;5.10;99.90
58513;DHT22;44302;47.914;10.642;2023-03-04T11:06:57;5.10;99.90
58513;DHT22;44302;47.914;10.642;2023-03-04T11:09:26;5.20;99.90
58513;DHT22;44302;47.914;10.642;2023-03-04T11:11:54;5.10;99.90
58513;DHT22;44302;47.914;10.642;2023-03-04T11:17:00;5.30;99.90
58513;DHT22;44302;47.914;10.642;2023-03-04T11:19:36;5.50;99.90
58513;DHT22;44302;47.914;10.642;2023-03-04T11:22:04;5.50;99.90
58513;DHT22;44302;47.914;10.642;2023-03-04T11:24:33;5.60;99.90
58513;DHT22;44302;47.914;10.642;2023-03-04T11:27:04;5.70;99.90
58513;DHT22;44302;47.914;10.642;2023-03-04T11:29:37;5.80;99.90
58513;DHT22;44302;47.914;10.642;2023-03-04T11:32:23;5.90;99.90
58513;DHT22;44302;47.914;10.642;2023-03-04T11:37:50;6.20;99.90
58513;DHT22;44302;47.914;10.642;2023-03-04T11:40:38;6.20;99.90
58513;DHT22;44302;47.914;10.642;2023-03-04T11:43:24;6.40;99.90
58513;DHT22;44302;47.914;10.642;2023-03-04T11:54:15;6.80;99.90
58513;DHT22;44302;47.914;10.642;2023-03-04T11:56:49;7.10;99.90
58513;DHT22;44302;47.914;10.642;2023-03-04T12:02:15;7.40;99.90
58513;DHT22;44302;47.914;10.642;2023-03-04T12:31:40;8.90;99.90
58513;DHT22;44302;47.914;10.642;2023-03-04T12:56:51;10.50;99.90
58513;DHT22;44302;47.914;10.642;2023-03-04T12:59:19;10.00;99.90
58513;DHT22;44302;47.914;10.642;2023-03-04T13:04:31;11.70;99.90
58513;DHT22;44302;47.914;10.642;2023-03-04T13:09:32;12.10;99.90
58513;DHT22;44302;47.914;10.642;2023-03-04T13:12:15;12.40;99.90
58513;DHT22;44302;47.914;10.642;2023-03-04T13:17:51;12.90;96.90
58513;DHT22;44302;47.914;10.642;2023-03-04T13:25:31;9.70;99.90
58513;DHT22;44302;47.914;10.642;2023-03-04T13:51:51;8.80;99.90
58513;DHT22;44302;47.914;10.642;2023-03-04T13:56:45;9.20;99.90
58513;DHT22;44302;47.914;10.642;2023-03-04T14:02:12;10.10;99.90
58513;DHT22;44302;47.914;10.642;2023-03-04T14:04:56;11.30;99.90
58513;DHT22;44302;47.914;10.642;2023-03-04T14:07:34;12.20;99.90
58513;DHT22;44302;47.914;10.642;2023-03-04T14:12:56;12.40;99.60
58513;DHT22;44302;47.914;10.642;2023-03-04T14:15:30;11.50;99.90
58513;DHT22;44302;47.914;10.642;2023-03-04T14:18:01;10.30;99.90
58513;DHT22;44302;47.914;10.642;2023-03-04T14:20:35;9.40;99.90
58513;DHT22;44302;47.914;10.642;2023-03-04T14:23:29;8.70;99.90
58513;DHT22;44302;47.914;10.642;2023-03-04T14:26:13;8.30;99.90
58513;DHT22;44302;47.914;10.642;2023-03-04T14:28:48;8.10;99.90
58513;DHT22;44302;47.914;10.642;2023-03-04T14:31:17;8.00;99.90
58513;DHT22;44302;47.914;10.642;2023-03-04T14:33:50;8.00;99.90
58513;DHT22;44302;47.914;10.642;2023-03-04T14:36:19;8.00;99.90
58513;DHT22;44302;47.914;10.642;2023-03-04T14:38:56;8.10;99.90
58513;DHT22;44302;47.914;10.642;2023-03-04T14:41:38;8.20;99.90
58513;DHT22;44302;47.914;10.642;2023-03-04T14:44:20;8.40;99.90
58513;DHT22;44302;47.914;10.642;2023-03-04T14:46:53;8.50;99.90
58513;DHT22;44302;47.914;10.642;2023-03-04T14:49:19;8.60;99.90
58513;DHT22;44302;47.914;10.642;2023-03-04T14:51:50;8.50;99.90
58513;DHT22;44302;47.914;10.642;2023-03-04T14:54:37;8.30;99.90
58513;DHT22;44302;47.914;10.642;2023-03-04T14:57:20;8.10;99.90
58513;DHT22;44302;47.914;10.642;2023-03-04T14:59:46;7.70;99.90
58513;DHT22;44302;47.914;10.642;2023-03-04T15:04:46;7.40;99.90
58513;DHT22;44302;47.914;10.642;2023-03-04T15:07:20;7.30;99.90
58513;DHT22;44302;47.914;10.642;2023-03-04T15:09:52;7.10;99.90
58513;DHT22;44302;47.914;10.642;2023-03-04T15:12:29;6.80;99.90
58513;DHT22;44302;47.914;10.642;2023-03-04T15:15:00;6.70;99.90
58513;DHT22;44302;47.914;10.642;2023-03-04T15:17:30;6.70;99.90
58513;DHT22;44302;47.914;10.642;2023-03-04T15:25:13;6.40;99.90
58513;DHT22;44302;47.914;10.642;2023-03-04T15:27:40;6.30;99.90
58513;DHT22;44302;47.914;10.642;2023-03-04T15:32:40;6.10;99.90
58513;DHT22;44302;47.914;10.642;2023-03-04T15:35:08;6.00;99.90
58513;DHT22;44302;47.914;10.642;2023-03-04T15:37:34;5.90;99.90
58513;DHT22;44302;47.914;10.642;2023-03-04T15:40:00;5.80;99.90
58513;DHT22;44302;47.914;10.642;2023-03-04T15:42:26;5.80;99.90
58513;DHT22;44302;47.914;10.642;2023-03-04T15:44:53;5.60;99.90
58513;DHT22;44302;47.914;10.642;2023-03-04T15:47:18;5.40;99.90
58513;DHT22;44302;47.914;10.642;2023-03-04T15:49:44;5.10;99.90
58513;DHT22;44302;47.914;10.642;2023-03-04T15:52:16;4.90;99.90
58513;DHT22;44302;47.914;10.642;2023-03-04T15:54:44;4.80;99.90
58513;DHT22;44302;47.914;10.642;2023-03-04T15:57:20;4.80;99.90
58513;DHT22;44302;47.914;10.642;2023-03-04T15:59:47;4.70;99.90
58513;DHT22;44302;47.914;10.642;2023-03-04T16:02:25;4.50;99.90
58513;DHT22;44302;47.914;10.642;2023-03-04T16:04:53;4.40;99.90
58513;DHT22;44302;47.914;10.642;2023-03-04T16:07:23;4.40;99.90
58513;DHT22;44302;47.914;10.642;2023-03-04T16:09:56;4.20;99.90
58513;DHT22;44302;47.914;10.642;2023-03-04T16:12:23;3.90;99.90
58513;DHT22;44302;47.914;10.642;2023-03-04T16:14:50;3.70;99.90
58513;DHT22;44302;47.914;10.642;2023-03-04T16:17:17;3.60;99.90
58513;DHT22;44302;47.914;10.642;2023-03-04T16:19:43;3.40;99.90
58513;DHT22;44302;47.914;10.642;2023-03-04T16:22:16;3.30;99.90
58513;DHT22;44302;47.914;10.642;2023-03-04T16:24:43;3.20;99.90
58513;DHT22;44302;47.914;10.642;2023-03-04T16:27:15;3.00;99.90
58513;DHT22;44302;47.914;10.642;2023-03-04T16:29:42;2.90;99.90
58513;DHT22;44302;47.914;10.642;2023-03-04T16:32:09;2.80;99.90
58513;DHT22;44302;47.914;10.642;2023-03-04T16:34:35;2.80;99.90
58513;DHT22;44302;47.914;10.642;2023-03-04T16:37:06;2.70;99.90
